Lannach, Austria
Current Conditions -  °F | °C
As of 5:20 AM on Saturday 20 Dec 2014 (Local Time) from LOWG Reporting Station
Clear Clear  
Wind Chill: 36°   Ceiling: Unl
Heat Index: 36°   Visibility: 6mi
Dew Point: 36°   Wind: 2mph
Humidity: 100%   Direction: NA
Pressure: 30.06"   Gusts: NA
Location:  46.94°N, 15.33°E
Report Text: LOWG 200320Z VRB02KT CAVOK 02/02 Q1018 NOSIG
Loading
Personal Weather Stations






























Interactive Weather Map New forecast layout! Learn more

10-Day Weather Forecast

Advertisements
Track Severe Weather on mobile